sensor_id;sensor_type;location;lat;lon;timestamp;P1;durP1;ratioP1;P2;durP2;ratioP2
59294;SDS011;45067;44.654;20.200;2022-11-02T00:00:21;130.57;;;82.40;;
59294;SDS011;45067;44.654;20.200;2022-11-02T00:02:48;119.55;;;74.65;;
59294;SDS011;45067;44.654;20.200;2022-11-02T00:05:14;120.95;;;77.72;;
59294;SDS011;45067;44.654;20.200;2022-11-02T00:07:40;122.18;;;79.03;;
59294;SDS011;45067;44.654;20.200;2022-11-02T00:10:07;115.80;;;74.53;;
59294;SDS011;45067;44.654;20.200;2022-11-02T00:12:34;117.45;;;72.88;;
59294;SDS011;45067;44.654;20.200;2022-11-02T00:15:00;115.97;;;72.07;;
59294;SDS011;45067;44.654;20.200;2022-11-02T00:17:27;114.38;;;69.78;;
59294;SDS011;45067;44.654;20.200;2022-11-02T00:19:54;116.65;;;71.38;;
59294;SDS011;45067;44.654;20.200;2022-11-02T00:22:20;115.95;;;71.22;;
59294;SDS011;45067;44.654;20.200;2022-11-02T00:24:46;117.30;;;72.65;;
59294;SDS011;45067;44.654;20.200;2022-11-02T00:27:12;112.35;;;72.00;;
59294;SDS011;45067;44.654;20.200;2022-11-02T00:29:38;118.72;;;73.03;;
59294;SDS011;45067;44.654;20.200;2022-11-02T00:32:04;119.13;;;74.00;;
59294;SDS011;45067;44.654;20.200;2022-11-02T00:34:30;113.90;;;70.80;;
59294;SDS011;45067;44.654;20.200;2022-11-02T00:36:56;116.65;;;75.40;;
59294;SDS011;45067;44.654;20.200;2022-11-02T00:39:22;112.93;;;71.72;;
59294;SDS011;45067;44.654;20.200;2022-11-02T00:41:48;114.65;;;71.25;;
59294;SDS011;45067;44.654;20.200;2022-11-02T00:44:14;105.25;;;66.57;;
59294;SDS011;45067;44.654;20.200;2022-11-02T00:46:40;107.55;;;65.95;;
59294;SDS011;45067;44.654;20.200;2022-11-02T00:49:06;105.57;;;65.57;;
59294;SDS011;45067;44.654;20.200;2022-11-02T00:51:32;107.22;;;63.72;;
59294;SDS011;45067;44.654;20.200;2022-11-02T00:53:58;107.10;;;66.38;;
59294;SDS011;45067;44.654;20.200;2022-11-02T00:56:24;110.13;;;66.45;;
59294;SDS011;45067;44.654;20.200;2022-11-02T00:58:50;113.82;;;70.70;;
59294;SDS011;45067;44.654;20.200;2022-11-02T01:01:16;120.25;;;69.40;;
59294;SDS011;45067;44.654;20.200;2022-11-02T01:03:42;108.18;;;67.85;;
59294;SDS011;45067;44.654;20.200;2022-11-02T01:06:09;101.53;;;63.60;;
59294;SDS011;45067;44.654;20.200;2022-11-02T01:08:36;99.38;;;63.53;;
59294;SDS011;45067;44.654;20.200;2022-11-02T01:11:18;96.90;;;60.55;;
59294;SDS011;45067;44.654;20.200;2022-11-02T01:13:44;98.60;;;59.78;;
59294;SDS011;45067;44.654;20.200;2022-11-02T01:16:11;97.10;;;61.38;;
59294;SDS011;45067;44.654;20.200;2022-11-02T01:18:38;100.97;;;65.40;;
59294;SDS011;45067;44.654;20.200;2022-11-02T01:21:04;101.10;;;64.00;;
59294;SDS011;45067;44.654;20.200;2022-11-02T01:23:31;103.57;;;62.50;;
59294;SDS011;45067;44.654;20.200;2022-11-02T01:25:57;99.90;;;63.63;;
59294;SDS011;45067;44.654;20.200;2022-11-02T01:28:23;107.15;;;65.18;;
59294;SDS011;45067;44.654;20.200;2022-11-02T01:30:49;100.15;;;65.53;;
59294;SDS011;45067;44.654;20.200;2022-11-02T01:33:16;96.78;;;60.20;;
59294;SDS011;45067;44.654;20.200;2022-11-02T01:35:42;97.20;;;62.03;;
59294;SDS011;45067;44.654;20.200;2022-11-02T01:38:08;104.13;;;62.70;;
59294;SDS011;45067;44.654;20.200;2022-11-02T01:40:36;103.90;;;64.78;;
59294;SDS011;45067;44.654;20.200;2022-11-02T01:45:44;101.43;;;63.78;;
59294;SDS011;45067;44.654;20.200;2022-11-02T01:48:11;100.65;;;64.72;;
59294;SDS011;45067;44.654;20.200;2022-11-02T01:50:37;103.95;;;63.95;;
59294;SDS011;45067;44.654;20.200;2022-11-02T01:53:03;99.20;;;62.90;;
59294;SDS011;45067;44.654;20.200;2022-11-02T01:55:30;99.63;;;62.85;;
59294;SDS011;45067;44.654;20.200;2022-11-02T01:58:05;96.53;;;62.13;;
59294;SDS011;45067;44.654;20.200;2022-11-02T02:00:32;97.18;;;63.53;;
59294;SDS011;45067;44.654;20.200;2022-11-02T02:05:24;106.88;;;67.80;;
59294;SDS011;45067;44.654;20.200;2022-11-02T02:07:51;108.78;;;66.57;;
59294;SDS011;45067;44.654;20.200;2022-11-02T02:10:17;105.20;;;65.25;;
59294;SDS011;45067;44.654;20.200;2022-11-02T02:12:43;111.88;;;65.80;;
59294;SDS011;45067;44.654;20.200;2022-11-02T02:15:09;111.13;;;67.35;;
59294;SDS011;45067;44.654;20.200;2022-11-02T02:28:02;143.95;;;81.80;;
59294;SDS011;45067;44.654;20.200;2022-11-02T02:30:30;161.27;;;80.68;;
59294;SDS011;45067;44.654;20.200;2022-11-02T02:33:25;143.20;;;78.13;;
59294;SDS011;45067;44.654;20.200;2022-11-02T02:35:47;132.75;;;77.68;;
59294;SDS011;45067;44.654;20.200;2022-11-02T02:38:18;131.23;;;72.57;;
59294;SDS011;45067;44.654;20.200;2022-11-02T02:40:50;130.07;;;75.00;;
59294;SDS011;45067;44.654;20.200;2022-11-02T02:43:17;136.35;;;74.05;;
59294;SDS011;45067;44.654;20.200;2022-11-02T02:45:49;134.82;;;71.30;;
59294;SDS011;45067;44.654;20.200;2022-11-02T02:48:19;159.32;;;72.95;;
59294;SDS011;45067;44.654;20.200;2022-11-02T02:50:53;125.82;;;69.63;;
59294;SDS011;45067;44.654;20.200;2022-11-02T02:53:30;107.28;;;65.03;;
59294;SDS011;45067;44.654;20.200;2022-11-02T02:55:58;115.00;;;69.18;;
59294;SDS011;45067;44.654;20.200;2022-11-02T02:58:26;118.60;;;68.13;;
59294;SDS011;45067;44.654;20.200;2022-11-02T03:00:54;119.22;;;69.30;;
59294;SDS011;45067;44.654;20.200;2022-11-02T03:03:22;120.10;;;71.95;;
59294;SDS011;45067;44.654;20.200;2022-11-02T03:08:24;123.68;;;60.63;;
59294;SDS011;45067;44.654;20.200;2022-11-02T03:11:00;84.05;;;57.97;;
59294;SDS011;45067;44.654;20.200;2022-11-02T03:16:09;96.72;;;64.00;;
59294;SDS011;45067;44.654;20.200;2022-11-02T03:21:05;128.75;;;65.68;;
59294;SDS011;45067;44.654;20.200;2022-11-02T03:23:33;137.63;;;62.47;;
59294;SDS011;45067;44.654;20.200;2022-11-02T03:26:14;112.85;;;65.93;;
59294;SDS011;45067;44.654;20.200;2022-11-02T03:39:36;131.95;;;66.38;;
59294;SDS011;45067;44.654;20.200;2022-11-02T03:42:03;144.13;;;65.75;;
59294;SDS011;45067;44.654;20.200;2022-11-02T03:44:31;138.40;;;63.20;;
59294;SDS011;45067;44.654;20.200;2022-11-02T03:47:01;124.25;;;65.05;;
59294;SDS011;45067;44.654;20.200;2022-11-02T03:49:28;159.95;;;65.72;;
59294;SDS011;45067;44.654;20.200;2022-11-02T03:51:55;190.73;;;68.00;;
59294;SDS011;45067;44.654;20.200;2022-11-02T03:54:30;124.10;;;63.90;;
59294;SDS011;45067;44.654;20.200;2022-11-02T03:57:01;167.07;;;62.65;;
59294;SDS011;45067;44.654;20.200;2022-11-02T03:59:29;189.27;;;61.60;;
59294;SDS011;45067;44.654;20.200;2022-11-02T04:01:56;132.43;;;63.17;;
59294;SDS011;45067;44.654;20.200;2022-11-02T04:04:23;148.32;;;63.08;;
59294;SDS011;45067;44.654;20.200;2022-11-02T04:06:49;140.55;;;61.72;;
59294;SDS011;45067;44.654;20.200;2022-11-02T04:09:16;152.32;;;61.60;;
59294;SDS011;45067;44.654;20.200;2022-11-02T04:11:42;122.15;;;60.33;;
59294;SDS011;45067;44.654;20.200;2022-11-02T04:14:26;181.10;;;63.00;;
59294;SDS011;45067;44.654;20.200;2022-11-02T04:17:02;124.90;;;61.60;;
59294;SDS011;45067;44.654;20.200;2022-11-02T04:19:47;96.35;;;57.72;;
59294;SDS011;45067;44.654;20.200;2022-11-02T04:22:13;118.78;;;61.58;;
59294;SDS011;45067;44.654;20.200;2022-11-02T04:24:57;90.13;;;56.33;;
59294;SDS011;45067;44.654;20.200;2022-11-02T04:27:42;87.88;;;54.85;;
59294;SDS011;45067;44.654;20.200;2022-11-02T04:30:08;81.15;;;48.20;;
59294;SDS011;45067;44.654;20.200;2022-11-02T04:32:38;91.15;;;52.50;;
59294;SDS011;45067;44.654;20.200;2022-11-02T04:35:23;102.53;;;48.40;;
59294;SDS011;45067;44.654;20.200;2022-11-02T04:37:49;80.55;;;47.03;;
59294;SDS011;45067;44.654;20.200;2022-11-02T04:40:33;113.20;;;52.45;;
59294;SDS011;45067;44.654;20.200;2022-11-02T04:42:59;74.30;;;47.85;;
59294;SDS011;45067;44.654;20.200;2022-11-02T04:45:25;84.13;;;46.50;;
59294;SDS011;45067;44.654;20.200;2022-11-02T04:47:51;64.32;;;44.75;;
59294;SDS011;45067;44.654;20.200;2022-11-02T04:50:18;61.40;;;45.08;;
59294;SDS011;45067;44.654;20.200;2022-11-02T04:52:44;93.95;;;47.25;;
59294;SDS011;45067;44.654;20.200;2022-11-02T04:55:10;73.55;;;45.97;;
59294;SDS011;45067;44.654;20.200;2022-11-02T04:57:36;83.57;;;49.08;;
59294;SDS011;45067;44.654;20.200;2022-11-02T05:00:05;82.53;;;50.30;;
59294;SDS011;45067;44.654;20.200;2022-11-02T05:02:31;107.25;;;54.97;;
59294;SDS011;45067;44.654;20.200;2022-11-02T05:04:57;121.30;;;53.70;;
59294;SDS011;45067;44.654;20.200;2022-11-02T05:07:23;79.15;;;50.67;;
59294;SDS011;45067;44.654;20.200;2022-11-02T05:09:49;145.00;;;55.88;;
59294;SDS011;45067;44.654;20.200;2022-11-02T05:12:15;91.07;;;52.95;;
59294;SDS011;45067;44.654;20.200;2022-11-02T05:14:41;84.97;;;52.83;;
59294;SDS011;45067;44.654;20.200;2022-11-02T05:17:07;88.57;;;51.88;;
59294;SDS011;45067;44.654;20.200;2022-11-02T05:19:33;91.78;;;50.00;;
59294;SDS011;45067;44.654;20.200;2022-11-02T05:21:59;83.18;;;49.50;;
59294;SDS011;45067;44.654;20.200;2022-11-02T05:24:28;100.68;;;53.20;;
59294;SDS011;45067;44.654;20.200;2022-11-02T05:27:03;124.45;;;52.95;;
59294;SDS011;45067;44.654;20.200;2022-11-02T05:29:29;88.30;;;49.42;;
59294;SDS011;45067;44.654;20.200;2022-11-02T05:31:55;106.47;;;54.10;;
59294;SDS011;45067;44.654;20.200;2022-11-02T05:34:21;81.03;;;50.42;;
59294;SDS011;45067;44.654;20.200;2022-11-02T05:36:48;89.15;;;51.03;;
59294;SDS011;45067;44.654;20.200;2022-11-02T05:39:15;85.63;;;52.40;;
59294;SDS011;45067;44.654;20.200;2022-11-02T05:41:49;81.50;;;49.90;;
59294;SDS011;45067;44.654;20.200;2022-11-02T05:44:18;77.22;;;49.33;;
59294;SDS011;45067;44.654;20.200;2022-11-02T05:46:44;80.93;;;51.22;;
59294;SDS011;45067;44.654;20.200;2022-11-02T05:49:10;83.97;;;53.10;;
59294;SDS011;45067;44.654;20.200;2022-11-02T05:51:36;88.35;;;51.58;;
59294;SDS011;45067;44.654;20.200;2022-11-02T05:54:02;83.40;;;51.78;;
59294;SDS011;45067;44.654;20.200;2022-11-02T05:56:28;83.22;;;52.00;;
59294;SDS011;45067;44.654;20.200;2022-11-02T05:58:54;83.68;;;51.65;;
59294;SDS011;45067;44.654;20.200;2022-11-02T06:01:20;88.70;;;53.35;;
59294;SDS011;45067;44.654;20.200;2022-11-02T06:03:47;84.50;;;52.67;;
59294;SDS011;45067;44.654;20.200;2022-11-02T06:06:13;90.32;;;53.78;;
59294;SDS011;45067;44.654;20.200;2022-11-02T06:08:39;94.30;;;52.60;;
59294;SDS011;45067;44.654;20.200;2022-11-02T06:11:05;85.80;;;52.22;;
59294;SDS011;45067;44.654;20.200;2022-11-02T06:13:31;82.68;;;52.45;;
59294;SDS011;45067;44.654;20.200;2022-11-02T06:16:01;96.38;;;56.28;;
59294;SDS011;45067;44.654;20.200;2022-11-02T06:18:27;89.13;;;53.63;;
59294;SDS011;45067;44.654;20.200;2022-11-02T06:20:58;96.80;;;55.15;;
59294;SDS011;45067;44.654;20.200;2022-11-02T06:23:24;116.07;;;56.20;;
59294;SDS011;45067;44.654;20.200;2022-11-02T06:25:54;101.60;;;57.58;;
59294;SDS011;45067;44.654;20.200;2022-11-02T06:28:21;97.00;;;56.17;;
59294;SDS011;45067;44.654;20.200;2022-11-02T06:30:47;98.30;;;54.90;;
59294;SDS011;45067;44.654;20.200;2022-11-02T06:33:14;102.75;;;56.50;;
59294;SDS011;45067;44.654;20.200;2022-11-02T06:35:47;114.53;;;57.10;;
59294;SDS011;45067;44.654;20.200;2022-11-02T06:38:13;109.70;;;58.33;;
59294;SDS011;45067;44.654;20.200;2022-11-02T06:40:40;104.90;;;58.53;;
59294;SDS011;45067;44.654;20.200;2022-11-02T06:43:06;108.18;;;58.33;;
59294;SDS011;45067;44.654;20.200;2022-11-02T06:45:32;110.60;;;59.72;;
59294;SDS011;45067;44.654;20.200;2022-11-02T06:47:58;124.25;;;61.63;;
59294;SDS011;45067;44.654;20.200;2022-11-02T06:50:24;114.90;;;60.80;;
59294;SDS011;45067;44.654;20.200;2022-11-02T06:52:50;121.97;;;63.78;;
59294;SDS011;45067;44.654;20.200;2022-11-02T06:55:17;109.68;;;59.63;;
59294;SDS011;45067;44.654;20.200;2022-11-02T06:57:43;126.65;;;61.20;;
59294;SDS011;45067;44.654;20.200;2022-11-02T07:00:11;114.05;;;61.97;;
59294;SDS011;45067;44.654;20.200;2022-11-02T07:02:40;126.93;;;61.33;;
59294;SDS011;45067;44.654;20.200;2022-11-02T07:05:06;124.57;;;60.90;;
59294;SDS011;45067;44.654;20.200;2022-11-02T07:07:33;124.70;;;62.58;;
59294;SDS011;45067;44.654;20.200;2022-11-02T07:09:59;132.70;;;66.30;;
59294;SDS011;45067;44.654;20.200;2022-11-02T07:12:25;130.93;;;63.38;;
59294;SDS011;45067;44.654;20.200;2022-11-02T07:14:51;127.35;;;64.55;;
59294;SDS011;45067;44.654;20.200;2022-11-02T07:17:17;126.63;;;65.43;;
59294;SDS011;45067;44.654;20.200;2022-11-02T07:19:43;120.55;;;64.18;;
59294;SDS011;45067;44.654;20.200;2022-11-02T07:22:09;131.75;;;63.90;;
59294;SDS011;45067;44.654;20.200;2022-11-02T07:24:35;206.95;;;66.35;;
59294;SDS011;45067;44.654;20.200;2022-11-02T07:27:01;135.25;;;65.75;;
59294;SDS011;45067;44.654;20.200;2022-11-02T07:29:27;128.90;;;68.90;;
59294;SDS011;45067;44.654;20.200;2022-11-02T07:31:53;123.75;;;65.80;;
59294;SDS011;45067;44.654;20.200;2022-11-02T07:34:20;132.25;;;63.65;;
59294;SDS011;45067;44.654;20.200;2022-11-02T07:36:46;143.02;;;64.28;;
59294;SDS011;45067;44.654;20.200;2022-11-02T07:39:12;132.13;;;64.70;;
59294;SDS011;45067;44.654;20.200;2022-11-02T07:41:38;112.47;;;61.08;;
59294;SDS011;45067;44.654;20.200;2022-11-02T07:44:04;116.53;;;61.85;;
59294;SDS011;45067;44.654;20.200;2022-11-02T07:46:30;125.07;;;63.65;;
59294;SDS011;45067;44.654;20.200;2022-11-02T07:52:00;119.13;;;61.00;;
59294;SDS011;45067;44.654;20.200;2022-11-02T07:54:26;114.70;;;61.15;;
59294;SDS011;45067;44.654;20.200;2022-11-02T07:56:52;105.80;;;60.70;;
59294;SDS011;45067;44.654;20.200;2022-11-02T07:59:18;102.30;;;60.50;;
59294;SDS011;45067;44.654;20.200;2022-11-02T08:01:44;105.60;;;60.33;;
59294;SDS011;45067;44.654;20.200;2022-11-02T08:04:10;98.75;;;56.42;;
59294;SDS011;45067;44.654;20.200;2022-11-02T08:06:36;95.75;;;57.63;;
59294;SDS011;45067;44.654;20.200;2022-11-02T08:09:02;107.20;;;59.60;;
59294;SDS011;45067;44.654;20.200;2022-11-02T08:11:28;99.05;;;56.65;;
59294;SDS011;45067;44.654;20.200;2022-11-02T08:13:55;101.60;;;56.72;;
59294;SDS011;45067;44.654;20.200;2022-11-02T08:16:21;105.25;;;55.60;;
59294;SDS011;45067;44.654;20.200;2022-11-02T08:18:47;102.10;;;53.10;;
59294;SDS011;45067;44.654;20.200;2022-11-02T08:21:13;101.85;;;51.63;;
59294;SDS011;45067;44.654;20.200;2022-11-02T08:23:39;93.72;;;48.22;;
59294;SDS011;45067;44.654;20.200;2022-11-02T08:26:05;103.95;;;48.60;;
59294;SDS011;45067;44.654;20.200;2022-11-02T08:28:31;90.55;;;45.90;;
59294;SDS011;45067;44.654;20.200;2022-11-02T08:31:00;89.93;;;44.10;;
59294;SDS011;45067;44.654;20.200;2022-11-02T08:33:26;88.78;;;44.30;;
59294;SDS011;45067;44.654;20.200;2022-11-02T08:35:52;81.53;;;42.47;;
59294;SDS011;45067;44.654;20.200;2022-11-02T08:38:19;93.97;;;43.45;;
59294;SDS011;45067;44.654;20.200;2022-11-02T08:40:47;87.15;;;44.00;;
59294;SDS011;45067;44.654;20.200;2022-11-02T08:43:13;83.80;;;43.40;;
59294;SDS011;45067;44.654;20.200;2022-11-02T08:45:40;84.53;;;42.13;;
59294;SDS011;45067;44.654;20.200;2022-11-02T08:48:07;88.05;;;42.22;;
59294;SDS011;45067;44.654;20.200;2022-11-02T08:50:33;80.18;;;43.45;;
59294;SDS011;45067;44.654;20.200;2022-11-02T08:53:00;82.20;;;43.85;;
59294;SDS011;45067;44.654;20.200;2022-11-02T08:55:26;86.07;;;44.28;;
59294;SDS011;45067;44.654;20.200;2022-11-02T08:57:55;83.97;;;44.45;;
59294;SDS011;45067;44.654;20.200;2022-11-02T09:00:23;77.95;;;42.05;;
59294;SDS011;45067;44.654;20.200;2022-11-02T09:05:24;80.85;;;42.28;;
59294;SDS011;45067;44.654;20.200;2022-11-02T09:07:57;74.00;;;41.72;;
59294;SDS011;45067;44.654;20.200;2022-11-02T09:10:24;72.30;;;40.80;;
59294;SDS011;45067;44.654;20.200;2022-11-02T09:12:50;73.40;;;40.70;;
59294;SDS011;45067;44.654;20.200;2022-11-02T09:15:17;73.63;;;41.33;;
59294;SDS011;45067;44.654;20.200;2022-11-02T09:17:46;69.70;;;39.80;;
59294;SDS011;45067;44.654;20.200;2022-11-02T09:20:13;68.78;;;40.75;;
59294;SDS011;45067;44.654;20.200;2022-11-02T09:22:40;74.78;;;41.25;;
59294;SDS011;45067;44.654;20.200;2022-11-02T09:25:06;74.32;;;42.38;;
59294;SDS011;45067;44.654;20.200;2022-11-02T09:27:32;77.20;;;42.08;;
59294;SDS011;45067;44.654;20.200;2022-11-02T09:29:58;83.10;;;45.05;;
59294;SDS011;45067;44.654;20.200;2022-11-02T09:32:24;74.60;;;43.08;;
59294;SDS011;45067;44.654;20.200;2022-11-02T09:34:51;75.85;;;43.92;;
59294;SDS011;45067;44.654;20.200;2022-11-02T09:37:17;76.60;;;40.10;;
59294;SDS011;45067;44.654;20.200;2022-11-02T09:39:43;80.85;;;44.30;;
59294;SDS011;45067;44.654;20.200;2022-11-02T09:44:55;77.18;;;43.83;;
59294;SDS011;45067;44.654;20.200;2022-11-02T09:47:23;77.65;;;44.03;;
59294;SDS011;45067;44.654;20.200;2022-11-02T09:49:50;78.10;;;43.33;;
59294;SDS011;45067;44.654;20.200;2022-11-02T09:52:24;78.63;;;41.83;;
59294;SDS011;45067;44.654;20.200;2022-11-02T09:54:52;73.88;;;41.42;;
59294;SDS011;45067;44.654;20.200;2022-11-02T09:57:20;74.90;;;42.72;;
59294;SDS011;45067;44.654;20.200;2022-11-02T09:59:51;77.57;;;43.60;;
59294;SDS011;45067;44.654;20.200;2022-11-02T10:02:21;79.60;;;44.15;;
59294;SDS011;45067;44.654;20.200;2022-11-02T10:07:21;82.22;;;43.70;;
59294;SDS011;45067;44.654;20.200;2022-11-02T10:15:16;89.30;;;46.42;;
59294;SDS011;45067;44.654;20.200;2022-11-02T10:17:43;84.70;;;44.83;;
59294;SDS011;45067;44.654;20.200;2022-11-02T10:20:18;85.57;;;43.75;;
59294;SDS011;45067;44.654;20.200;2022-11-02T10:22:45;89.35;;;46.38;;
59294;SDS011;45067;44.654;20.200;2022-11-02T10:25:13;76.55;;;43.28;;
59294;SDS011;45067;44.654;20.200;2022-11-02T10:27:39;76.07;;;39.90;;
59294;SDS011;45067;44.654;20.200;2022-11-02T10:32:37;81.38;;;42.80;;
59294;SDS011;45067;44.654;20.200;2022-11-02T10:35:04;71.05;;;39.38;;
59294;SDS011;45067;44.654;20.200;2022-11-02T10:37:48;80.47;;;42.75;;
59294;SDS011;45067;44.654;20.200;2022-11-02T10:51:11;72.43;;;38.80;;
59294;SDS011;45067;44.654;20.200;2022-11-02T10:53:41;73.65;;;38.03;;
59294;SDS011;45067;44.654;20.200;2022-11-02T10:58:33;67.65;;;37.42;;
59294;SDS011;45067;44.654;20.200;2022-11-02T11:01:05;64.25;;;35.20;;
59294;SDS011;45067;44.654;20.200;2022-11-02T11:03:32;70.93;;;38.63;;
59294;SDS011;45067;44.654;20.200;2022-11-02T11:05:59;65.28;;;35.80;;
59294;SDS011;45067;44.654;20.200;2022-11-02T11:13:36;70.93;;;37.63;;
59294;SDS011;45067;44.654;20.200;2022-11-02T11:16:02;73.00;;;37.47;;
59294;SDS011;45067;44.654;20.200;2022-11-02T11:18:30;70.15;;;37.78;;
59294;SDS011;45067;44.654;20.200;2022-11-02T11:20:56;73.93;;;38.65;;
59294;SDS011;45067;44.654;20.200;2022-11-02T11:23:24;62.50;;;36.47;;
59294;SDS011;45067;44.654;20.200;2022-11-02T11:25:57;74.88;;;38.78;;
59294;SDS011;45067;44.654;20.200;2022-11-02T11:28:37;73.40;;;41.83;;
59294;SDS011;45067;44.654;20.200;2022-11-02T11:31:07;64.00;;;36.20;;
59294;SDS011;45067;44.654;20.200;2022-11-02T11:33:50;70.07;;;37.33;;
59294;SDS011;45067;44.654;20.200;2022-11-02T11:36:24;69.10;;;38.20;;
59294;SDS011;45067;44.654;20.200;2022-11-02T11:38:51;71.55;;;38.13;;
59294;SDS011;45067;44.654;20.200;2022-11-02T11:41:18;63.42;;;35.35;;
59294;SDS011;45067;44.654;20.200;2022-11-02T11:43:44;68.28;;;37.35;;
59294;SDS011;45067;44.654;20.200;2022-11-02T11:46:11;68.57;;;38.25;;
59294;SDS011;45067;44.654;20.200;2022-11-02T11:48:43;76.45;;;40.08;;
59294;SDS011;45067;44.654;20.200;2022-11-02T11:56:36;67.95;;;38.15;;
59294;SDS011;45067;44.654;20.200;2022-11-02T11:59:02;70.82;;;38.72;;
59294;SDS011;45067;44.654;20.200;2022-11-02T12:01:36;71.97;;;38.90;;
59294;SDS011;45067;44.654;20.200;2022-11-02T12:04:03;70.05;;;38.85;;
59294;SDS011;45067;44.654;20.200;2022-11-02T12:19:53;72.22;;;38.72;;
59294;SDS011;45067;44.654;20.200;2022-11-02T12:22:37;72.22;;;38.25;;
59294;SDS011;45067;44.654;20.200;2022-11-02T12:30:22;72.65;;;40.97;;
59294;SDS011;45067;44.654;20.200;2022-11-02T12:48:41;94.07;;;47.53;;
59294;SDS011;45067;44.654;20.200;2022-11-02T12:51:23;87.75;;;45.25;;
59294;SDS011;45067;44.654;20.200;2022-11-02T12:53:53;83.93;;;46.13;;
59294;SDS011;45067;44.654;20.200;2022-11-02T12:56:25;92.95;;;47.92;;
59294;SDS011;45067;44.654;20.200;2022-11-02T12:58:53;98.85;;;50.22;;
59294;SDS011;45067;44.654;20.200;2022-11-02T13:01:27;92.65;;;48.45;;
59294;SDS011;45067;44.654;20.200;2022-11-02T13:07:01;93.13;;;48.35;;
59294;SDS011;45067;44.654;20.200;2022-11-02T13:12:06;82.43;;;45.50;;
59294;SDS011;45067;44.654;20.200;2022-11-02T13:14:40;82.60;;;44.85;;
59294;SDS011;45067;44.654;20.200;2022-11-02T13:22:38;80.80;;;40.97;;
59294;SDS011;45067;44.654;20.200;2022-11-02T13:27:51;98.20;;;50.45;;
59294;SDS011;45067;44.654;20.200;2022-11-02T13:30:18;89.00;;;46.40;;
59294;SDS011;45067;44.654;20.200;2022-11-02T13:32:49;75.50;;;41.45;;
59294;SDS011;45067;44.654;20.200;2022-11-02T13:41:05;85.03;;;42.30;;
59294;SDS011;45067;44.654;20.200;2022-11-02T13:48:58;86.75;;;44.97;;
59294;SDS011;45067;44.654;20.200;2022-11-02T13:51:38;87.88;;;43.92;;
59294;SDS011;45067;44.654;20.200;2022-11-02T13:56:44;90.53;;;47.78;;
59294;SDS011;45067;44.654;20.200;2022-11-02T13:59:18;106.13;;;50.45;;
59294;SDS011;45067;44.654;20.200;2022-11-02T14:01:45;100.10;;;49.85;;
59294;SDS011;45067;44.654;20.200;2022-11-02T14:04:11;101.55;;;47.72;;
59294;SDS011;45067;44.654;20.200;2022-11-02T14:06:43;103.45;;;47.65;;
59294;SDS011;45067;44.654;20.200;2022-11-02T14:09:10;97.22;;;47.22;;
59294;SDS011;45067;44.654;20.200;2022-11-02T14:11:46;102.75;;;49.42;;
59294;SDS011;45067;44.654;20.200;2022-11-02T14:14:17;98.07;;;45.30;;
59294;SDS011;45067;44.654;20.200;2022-11-02T14:16:44;88.90;;;46.00;;
59294;SDS011;45067;44.654;20.200;2022-11-02T14:21:44;89.38;;;45.40;;
59294;SDS011;45067;44.654;20.200;2022-11-02T14:26:55;96.00;;;46.15;;
59294;SDS011;45067;44.654;20.200;2022-11-02T14:29:37;99.05;;;46.65;;
59294;SDS011;45067;44.654;20.200;2022-11-02T14:32:15;100.13;;;47.27;;
59294;SDS011;45067;44.654;20.200;2022-11-02T14:37:21;100.18;;;51.47;;
59294;SDS011;45067;44.654;20.200;2022-11-02T14:39:52;104.07;;;49.17;;
59294;SDS011;45067;44.654;20.200;2022-11-02T14:47:55;109.35;;;50.38;;
59294;SDS011;45067;44.654;20.200;2022-11-02T14:50:22;104.68;;;47.53;;
59294;SDS011;45067;44.654;20.200;2022-11-02T14:52:55;107.40;;;48.42;;
59294;SDS011;45067;44.654;20.200;2022-11-02T14:55:24;116.15;;;51.05;;
59294;SDS011;45067;44.654;20.200;2022-11-02T14:57:53;113.75;;;52.30;;
59294;SDS011;45067;44.654;20.200;2022-11-02T15:02:46;123.43;;;54.97;;
59294;SDS011;45067;44.654;20.200;2022-11-02T15:07:53;125.97;;;56.28;;
59294;SDS011;45067;44.654;20.200;2022-11-02T15:23:45;134.18;;;59.78;;
59294;SDS011;45067;44.654;20.200;2022-11-02T15:28:58;128.18;;;55.92;;
59294;SDS011;45067;44.654;20.200;2022-11-02T15:31:25;122.30;;;54.38;;
59294;SDS011;45067;44.654;20.200;2022-11-02T15:33:53;124.72;;;55.00;;
59294;SDS011;45067;44.654;20.200;2022-11-02T15:38:53;134.82;;;57.35;;
59294;SDS011;45067;44.654;20.200;2022-11-02T15:41:38;129.85;;;56.22;;
59294;SDS011;45067;44.654;20.200;2022-11-02T15:49:34;132.95;;;56.67;;
59294;SDS011;45067;44.654;20.200;2022-11-02T15:57:18;89.20;;;43.83;;
59294;SDS011;45067;44.654;20.200;2022-11-02T16:02:26;118.53;;;49.88;;
59294;SDS011;45067;44.654;20.200;2022-11-02T16:04:55;120.43;;;51.95;;
59294;SDS011;45067;44.654;20.200;2022-11-02T16:07:21;119.70;;;50.00;;
59294;SDS011;45067;44.654;20.200;2022-11-02T16:09:48;109.43;;;47.53;;
59294;SDS011;45067;44.654;20.200;2022-11-02T16:12:18;97.47;;;46.65;;
59294;SDS011;45067;44.654;20.200;2022-11-02T16:17:19;95.72;;;45.13;;
59294;SDS011;45067;44.654;20.200;2022-11-02T16:19:46;91.10;;;45.53;;
59294;SDS011;45067;44.654;20.200;2022-11-02T16:22:14;102.30;;;49.03;;
59294;SDS011;45067;44.654;20.200;2022-11-02T16:24:45;98.75;;;46.88;;
59294;SDS011;45067;44.654;20.200;2022-11-02T16:27:11;96.00;;;46.55;;
59294;SDS011;45067;44.654;20.200;2022-11-02T16:29:38;103.50;;;49.85;;
59294;SDS011;45067;44.654;20.200;2022-11-02T16:32:07;101.00;;;48.83;;
59294;SDS011;45067;44.654;20.200;2022-11-02T16:34:34;92.68;;;44.00;;
59294;SDS011;45067;44.654;20.200;2022-11-02T16:37:01;88.40;;;43.20;;
59294;SDS011;45067;44.654;20.200;2022-11-02T16:39:32;88.00;;;44.53;;
59294;SDS011;45067;44.654;20.200;2022-11-02T16:42:01;94.70;;;46.00;;
59294;SDS011;45067;44.654;20.200;2022-11-02T16:44:32;91.60;;;45.05;;
59294;SDS011;45067;44.654;20.200;2022-11-02T16:49:41;85.38;;;43.42;;
59294;SDS011;45067;44.654;20.200;2022-11-02T16:52:22;86.03;;;42.03;;
59294;SDS011;45067;44.654;20.200;2022-11-02T16:54:48;84.82;;;44.38;;
59294;SDS011;45067;44.654;20.200;2022-11-02T17:02:16;85.75;;;43.05;;
59294;SDS011;45067;44.654;20.200;2022-11-02T17:04:42;85.90;;;43.97;;
59294;SDS011;45067;44.654;20.200;2022-11-02T17:07:18;86.70;;;44.83;;
59294;SDS011;45067;44.654;20.200;2022-11-02T17:09:53;87.28;;;44.95;;
59294;SDS011;45067;44.654;20.200;2022-11-02T17:12:22;82.85;;;42.85;;
59294;SDS011;45067;44.654;20.200;2022-11-02T17:14:52;79.88;;;41.15;;
59294;SDS011;45067;44.654;20.200;2022-11-02T17:17:29;79.53;;;40.60;;
59294;SDS011;45067;44.654;20.200;2022-11-02T17:25:18;87.07;;;44.70;;
59294;SDS011;45067;44.654;20.200;2022-11-02T17:27:44;111.65;;;53.83;;
59294;SDS011;45067;44.654;20.200;2022-11-02T17:32:55;99.35;;;48.05;;
59294;SDS011;45067;44.654;20.200;2022-11-02T17:35:22;87.88;;;44.15;;
59294;SDS011;45067;44.654;20.200;2022-11-02T17:37:48;88.88;;;43.65;;